sensor_id;sensor_type;location;lat;lon;timestamp;P1;durP1;ratioP1;P2;durP2;ratioP2
23384;SDS011;11865;45.394;10.978;2022-09-09T00:04:30;7.95;;;3.88;;
23384;SDS011;11865;45.394;10.978;2022-09-09T00:09:35;8.55;;;3.97;;
23384;SDS011;11865;45.394;10.978;2022-09-09T00:12:14;7.30;;;4.03;;
23384;SDS011;11865;45.394;10.978;2022-09-09T00:20:42;8.65;;;4.15;;
23384;SDS011;11865;45.394;10.978;2022-09-09T00:28:48;10.35;;;4.45;;
23384;SDS011;11865;45.394;10.978;2022-09-09T00:31:37;10.68;;;3.72;;
23384;SDS011;11865;45.394;10.978;2022-09-09T00:34:09;9.75;;;3.85;;
23384;SDS011;11865;45.394;10.978;2022-09-09T00:36:40;6.68;;;3.17;;
23384;SDS011;11865;45.394;10.978;2022-09-09T00:39:09;9.02;;;3.50;;
23384;SDS011;11865;45.394;10.978;2022-09-09T00:44:36;11.13;;;3.17;;
23384;SDS011;11865;45.394;10.978;2022-09-09T00:55:25;5.85;;;3.53;;
23384;SDS011;11865;45.394;10.978;2022-09-09T00:58:06;7.72;;;4.13;;
23384;SDS011;11865;45.394;10.978;2022-09-09T01:00:38;10.10;;;3.85;;
23384;SDS011;11865;45.394;10.978;2022-09-09T01:03:20;10.10;;;5.15;;
23384;SDS011;11865;45.394;10.978;2022-09-09T01:05:57;10.98;;;6.32;;
23384;SDS011;11865;45.394;10.978;2022-09-09T01:28:10;10.80;;;7.28;;
23384;SDS011;11865;45.394;10.978;2022-09-09T01:30:42;13.73;;;8.18;;
23384;SDS011;11865;45.394;10.978;2022-09-09T01:33:15;19.17;;;9.75;;
23384;SDS011;11865;45.394;10.978;2022-09-09T01:38:44;12.63;;;7.68;;
23384;SDS011;11865;45.394;10.978;2022-09-09T01:41:11;12.02;;;7.20;;
23384;SDS011;11865;45.394;10.978;2022-09-09T01:43:59;10.77;;;6.70;;
23384;SDS011;11865;45.394;10.978;2022-09-09T01:46:28;12.45;;;6.88;;
23384;SDS011;11865;45.394;10.978;2022-09-09T01:48:57;10.35;;;5.65;;
23384;SDS011;11865;45.394;10.978;2022-09-09T01:51:27;10.95;;;5.03;;
23384;SDS011;11865;45.394;10.978;2022-09-09T01:53:58;8.05;;;4.70;;
23384;SDS011;11865;45.394;10.978;2022-09-09T02:10:50;10.07;;;2.88;;
23384;SDS011;11865;45.394;10.978;2022-09-09T02:13:38;7.25;;;2.90;;
23384;SDS011;11865;45.394;10.978;2022-09-09T02:16:21;6.55;;;3.15;;
23384;SDS011;11865;45.394;10.978;2022-09-09T02:19:00;9.77;;;3.90;;
23384;SDS011;11865;45.394;10.978;2022-09-09T02:22:18;9.38;;;3.47;;
23384;SDS011;11865;45.394;10.978;2022-09-09T02:24:49;7.53;;;3.53;;
23384;SDS011;11865;45.394;10.978;2022-09-09T02:27:24;8.75;;;3.53;;
23384;SDS011;11865;45.394;10.978;2022-09-09T02:29:52;8.07;;;3.85;;
23384;SDS011;11865;45.394;10.978;2022-09-09T02:32:33;10.60;;;3.38;;
23384;SDS011;11865;45.394;10.978;2022-09-09T02:35:06;6.40;;;3.53;;
23384;SDS011;11865;45.394;10.978;2022-09-09T02:37:39;6.05;;;3.67;;
23384;SDS011;11865;45.394;10.978;2022-09-09T02:40:09;8.07;;;3.22;;
23384;SDS011;11865;45.394;10.978;2022-09-09T02:42:46;6.32;;;3.70;;
23384;SDS011;11865;45.394;10.978;2022-09-09T02:45:18;9.07;;;3.10;;
23384;SDS011;11865;45.394;10.978;2022-09-09T02:50:32;6.35;;;3.38;;
23384;SDS011;11865;45.394;10.978;2022-09-09T02:55:49;8.77;;;3.63;;
23384;SDS011;11865;45.394;10.978;2022-09-09T02:58:23;6.45;;;3.03;;
23384;SDS011;11865;45.394;10.978;2022-09-09T03:01:02;7.07;;;3.47;;
23384;SDS011;11865;45.394;10.978;2022-09-09T03:03:30;4.88;;;3.10;;
23384;SDS011;11865;45.394;10.978;2022-09-09T03:06:01;6.25;;;3.33;;
23384;SDS011;11865;45.394;10.978;2022-09-09T03:08:29;7.25;;;3.67;;
23384;SDS011;11865;45.394;10.978;2022-09-09T03:10:58;5.35;;;3.20;;
23384;SDS011;11865;45.394;10.978;2022-09-09T03:13:30;7.57;;;4.45;;
23384;SDS011;11865;45.394;10.978;2022-09-09T03:15:58;9.13;;;4.15;;
23384;SDS011;11865;45.394;10.978;2022-09-09T03:18:28;6.38;;;4.20;;
23384;SDS011;11865;45.394;10.978;2022-09-09T03:20:57;10.60;;;4.00;;
23384;SDS011;11865;45.394;10.978;2022-09-09T03:23:26;6.32;;;4.32;;
23384;SDS011;11865;45.394;10.978;2022-09-09T03:25:54;8.15;;;3.90;;
23384;SDS011;11865;45.394;10.978;2022-09-09T03:28:30;7.15;;;4.30;;
23384;SDS011;11865;45.394;10.978;2022-09-09T03:31:00;8.27;;;4.32;;
23384;SDS011;11865;45.394;10.978;2022-09-09T03:33:33;10.05;;;4.60;;
23384;SDS011;11865;45.394;10.978;2022-09-09T03:36:03;8.40;;;4.80;;
23384;SDS011;11865;45.394;10.978;2022-09-09T03:38:31;10.35;;;5.03;;
23384;SDS011;11865;45.394;10.978;2022-09-09T03:41:00;7.35;;;4.75;;
23384;SDS011;11865;45.394;10.978;2022-09-09T03:43:29;11.10;;;5.00;;
23384;SDS011;11865;45.394;10.978;2022-09-09T03:45:57;14.65;;;5.43;;
23384;SDS011;11865;45.394;10.978;2022-09-09T03:48:26;6.78;;;4.35;;
23384;SDS011;11865;45.394;10.978;2022-09-09T03:50:55;9.48;;;4.85;;
23384;SDS011;11865;45.394;10.978;2022-09-09T03:53:24;14.52;;;9.10;;
23384;SDS011;11865;45.394;10.978;2022-09-09T03:55:53;9.27;;;4.95;;
23384;SDS011;11865;45.394;10.978;2022-09-09T03:58:24;9.52;;;5.00;;
23384;SDS011;11865;45.394;10.978;2022-09-09T04:00:58;7.68;;;4.68;;
23384;SDS011;11865;45.394;10.978;2022-09-09T04:03:27;9.48;;;5.03;;
23384;SDS011;11865;45.394;10.978;2022-09-09T04:05:56;8.10;;;4.97;;
23384;SDS011;11865;45.394;10.978;2022-09-09T04:08:27;12.60;;;4.97;;
23384;SDS011;11865;45.394;10.978;2022-09-09T04:10:54;10.68;;;4.72;;
23384;SDS011;11865;45.394;10.978;2022-09-09T04:13:26;10.18;;;4.60;;
23384;SDS011;11865;45.394;10.978;2022-09-09T04:15:56;11.25;;;5.15;;
23384;SDS011;11865;45.394;10.978;2022-09-09T04:18:25;10.85;;;5.80;;
23384;SDS011;11865;45.394;10.978;2022-09-09T04:20:55;9.30;;;5.60;;
23384;SDS011;11865;45.394;10.978;2022-09-09T04:23:28;11.40;;;6.35;;
23384;SDS011;11865;45.394;10.978;2022-09-09T04:25:57;11.57;;;6.00;;
23384;SDS011;11865;45.394;10.978;2022-09-09T04:28:28;9.85;;;6.50;;
23384;SDS011;11865;45.394;10.978;2022-09-09T04:30:58;10.95;;;6.70;;
23384;SDS011;11865;45.394;10.978;2022-09-09T04:33:35;9.55;;;6.15;;
23384;SDS011;11865;45.394;10.978;2022-09-09T04:36:06;14.63;;;7.22;;
23384;SDS011;11865;45.394;10.978;2022-09-09T04:38:35;12.90;;;6.50;;
23384;SDS011;11865;45.394;10.978;2022-09-09T04:41:03;13.02;;;6.05;;
23384;SDS011;11865;45.394;10.978;2022-09-09T04:43:33;10.98;;;5.28;;
23384;SDS011;11865;45.394;10.978;2022-09-09T04:46:03;11.85;;;6.47;;
23384;SDS011;11865;45.394;10.978;2022-09-09T04:48:31;9.35;;;5.00;;
23384;SDS011;11865;45.394;10.978;2022-09-09T04:51:02;11.35;;;5.15;;
23384;SDS011;11865;45.394;10.978;2022-09-09T04:53:33;13.80;;;5.85;;
23384;SDS011;11865;45.394;10.978;2022-09-09T04:56:05;16.10;;;5.68;;
23384;SDS011;11865;45.394;10.978;2022-09-09T04:58:41;10.38;;;5.22;;
23384;SDS011;11865;45.394;10.978;2022-09-09T05:01:18;14.35;;;5.95;;
23384;SDS011;11865;45.394;10.978;2022-09-09T05:03:48;12.07;;;5.53;;
23384;SDS011;11865;45.394;10.978;2022-09-09T05:06:20;10.65;;;5.50;;
23384;SDS011;11865;45.394;10.978;2022-09-09T05:08:52;11.60;;;5.57;;
23384;SDS011;11865;45.394;10.978;2022-09-09T05:11:25;14.33;;;6.03;;
23384;SDS011;11865;45.394;10.978;2022-09-09T05:14:02;23.52;;;8.05;;
23384;SDS011;11865;45.394;10.978;2022-09-09T05:16:31;17.88;;;9.70;;
23384;SDS011;11865;45.394;10.978;2022-09-09T05:18:58;15.15;;;6.25;;
23384;SDS011;11865;45.394;10.978;2022-09-09T05:21:35;15.18;;;6.45;;
23384;SDS011;11865;45.394;10.978;2022-09-09T05:24:02;14.35;;;6.07;;
23384;SDS011;11865;45.394;10.978;2022-09-09T05:26:30;14.27;;;5.15;;
23384;SDS011;11865;45.394;10.978;2022-09-09T05:28:58;18.67;;;6.20;;
23384;SDS011;11865;45.394;10.978;2022-09-09T05:31:29;9.45;;;5.22;;
23384;SDS011;11865;45.394;10.978;2022-09-09T05:34:00;11.70;;;4.95;;
23384;SDS011;11865;45.394;10.978;2022-09-09T05:36:28;9.50;;;4.97;;
23384;SDS011;11865;45.394;10.978;2022-09-09T05:38:56;12.40;;;5.63;;
23384;SDS011;11865;45.394;10.978;2022-09-09T05:41:26;17.45;;;5.45;;
23384;SDS011;11865;45.394;10.978;2022-09-09T05:43:57;15.48;;;4.82;;
23384;SDS011;11865;45.394;10.978;2022-09-09T05:46:25;9.48;;;4.65;;
23384;SDS011;11865;45.394;10.978;2022-09-09T05:48:55;19.10;;;5.60;;
23384;SDS011;11865;45.394;10.978;2022-09-09T05:51:29;30.25;;;5.18;;
23384;SDS011;11865;45.394;10.978;2022-09-09T05:53:59;20.40;;;5.75;;
23384;SDS011;11865;45.394;10.978;2022-09-09T05:56:30;19.23;;;5.47;;
23384;SDS011;11865;45.394;10.978;2022-09-09T05:58:59;12.25;;;4.72;;
23384;SDS011;11865;45.394;10.978;2022-09-09T06:01:29;11.07;;;4.03;;
23384;SDS011;11865;45.394;10.978;2022-09-09T06:04:00;9.20;;;2.90;;
23384;SDS011;11865;45.394;10.978;2022-09-09T06:06:35;9.77;;;2.97;;
23384;SDS011;11865;45.394;10.978;2022-09-09T06:09:11;11.05;;;3.75;;
23384;SDS011;11865;45.394;10.978;2022-09-09T06:11:42;12.20;;;3.90;;
23384;SDS011;11865;45.394;10.978;2022-09-09T06:14:10;13.75;;;3.47;;
23384;SDS011;11865;45.394;10.978;2022-09-09T06:16:39;10.50;;;3.67;;
23384;SDS011;11865;45.394;10.978;2022-09-09T06:19:15;13.50;;;4.32;;
23384;SDS011;11865;45.394;10.978;2022-09-09T06:21:43;16.20;;;3.88;;
23384;SDS011;11865;45.394;10.978;2022-09-09T06:24:11;9.23;;;3.22;;
23384;SDS011;11865;45.394;10.978;2022-09-09T06:26:41;14.40;;;2.92;;
23384;SDS011;11865;45.394;10.978;2022-09-09T06:29:11;8.18;;;2.90;;
23384;SDS011;11865;45.394;10.978;2022-09-09T06:31:41;14.77;;;3.60;;
23384;SDS011;11865;45.394;10.978;2022-09-09T06:34:15;7.80;;;3.20;;
23384;SDS011;11865;45.394;10.978;2022-09-09T06:36:46;7.93;;;2.65;;
23384;SDS011;11865;45.394;10.978;2022-09-09T06:39:14;13.93;;;3.28;;
23384;SDS011;11865;45.394;10.978;2022-09-09T06:41:43;6.10;;;2.28;;
23384;SDS011;11865;45.394;10.978;2022-09-09T06:44:33;17.77;;;4.53;;
23384;SDS011;11865;45.394;10.978;2022-09-09T06:47:03;10.27;;;2.35;;
23384;SDS011;11865;45.394;10.978;2022-09-09T06:49:32;6.53;;;2.20;;
23384;SDS011;11865;45.394;10.978;2022-09-09T06:52:01;7.50;;;2.20;;
23384;SDS011;11865;45.394;10.978;2022-09-09T06:54:29;10.80;;;3.15;;
23384;SDS011;11865;45.394;10.978;2022-09-09T06:56:57;9.73;;;3.30;;
23384;SDS011;11865;45.394;10.978;2022-09-09T06:59:47;8.40;;;2.30;;
23384;SDS011;11865;45.394;10.978;2022-09-09T07:02:15;6.65;;;2.15;;
23384;SDS011;11865;45.394;10.978;2022-09-09T07:04:43;11.23;;;3.15;;
23384;SDS011;11865;45.394;10.978;2022-09-09T07:07:11;8.80;;;2.60;;
23384;SDS011;11865;45.394;10.978;2022-09-09T07:09:40;10.45;;;3.13;;
23384;SDS011;11865;45.394;10.978;2022-09-09T07:12:08;11.65;;;3.40;;
23384;SDS011;11865;45.394;10.978;2022-09-09T07:14:40;11.23;;;2.47;;
23384;SDS011;11865;45.394;10.978;2022-09-09T07:17:08;10.82;;;2.60;;
23384;SDS011;11865;45.394;10.978;2022-09-09T07:19:38;8.00;;;2.72;;
23384;SDS011;11865;45.394;10.978;2022-09-09T07:22:05;9.60;;;2.95;;
23384;SDS011;11865;45.394;10.978;2022-09-09T07:24:34;8.35;;;2.97;;
23384;SDS011;11865;45.394;10.978;2022-09-09T07:27:02;5.53;;;2.63;;
23384;SDS011;11865;45.394;10.978;2022-09-09T07:29:30;8.10;;;2.55;;
23384;SDS011;11865;45.394;10.978;2022-09-09T07:31:58;6.10;;;2.60;;
23384;SDS011;11865;45.394;10.978;2022-09-09T07:34:31;11.13;;;3.13;;
23384;SDS011;11865;45.394;10.978;2022-09-09T07:36:59;8.90;;;6.10;;
23384;SDS011;11865;45.394;10.978;2022-09-09T07:39:28;7.85;;;3.22;;
23384;SDS011;11865;45.394;10.978;2022-09-09T07:41:55;9.63;;;3.65;;
23384;SDS011;11865;45.394;10.978;2022-09-09T07:44:23;15.48;;;4.03;;
23384;SDS011;11865;45.394;10.978;2022-09-09T07:47:17;13.98;;;3.47;;
23384;SDS011;11865;45.394;10.978;2022-09-09T07:49:47;16.58;;;4.65;;
23384;SDS011;11865;45.394;10.978;2022-09-09T07:52:21;8.63;;;3.45;;
23384;SDS011;11865;45.394;10.978;2022-09-09T07:57:20;7.88;;;2.70;;
23384;SDS011;11865;45.394;10.978;2022-09-09T07:59:50;8.10;;;2.90;;
23384;SDS011;11865;45.394;10.978;2022-09-09T08:02:18;10.95;;;4.00;;
23384;SDS011;11865;45.394;10.978;2022-09-09T08:04:46;11.90;;;3.20;;
23384;SDS011;11865;45.394;10.978;2022-09-09T08:07:15;8.35;;;3.45;;
23384;SDS011;11865;45.394;10.978;2022-09-09T08:09:49;13.35;;;3.20;;
23384;SDS011;11865;45.394;10.978;2022-09-09T08:12:23;11.52;;;3.33;;
23384;SDS011;11865;45.394;10.978;2022-09-09T08:14:51;11.65;;;4.05;;
23384;SDS011;11865;45.394;10.978;2022-09-09T08:17:23;18.27;;;4.38;;
23384;SDS011;11865;45.394;10.978;2022-09-09T08:19:51;11.05;;;3.08;;
23384;SDS011;11865;45.394;10.978;2022-09-09T08:22:22;10.30;;;3.67;;
23384;SDS011;11865;45.394;10.978;2022-09-09T08:24:51;10.13;;;3.47;;
23384;SDS011;11865;45.394;10.978;2022-09-09T08:27:19;11.68;;;3.47;;
23384;SDS011;11865;45.394;10.978;2022-09-09T08:29:47;14.05;;;4.78;;
23384;SDS011;11865;45.394;10.978;2022-09-09T08:32:14;6.38;;;3.15;;
23384;SDS011;11865;45.394;10.978;2022-09-09T08:34:44;9.02;;;3.38;;
23384;SDS011;11865;45.394;10.978;2022-09-09T08:37:18;17.63;;;5.47;;
23384;SDS011;11865;45.394;10.978;2022-09-09T08:39:47;7.88;;;4.10;;
23384;SDS011;11865;45.394;10.978;2022-09-09T08:42:37;17.35;;;3.53;;
23384;SDS011;11865;45.394;10.978;2022-09-09T08:50:26;7.60;;;2.80;;
23384;SDS011;11865;45.394;10.978;2022-09-09T08:53:11;8.20;;;3.20;;
23384;SDS011;11865;45.394;10.978;2022-09-09T08:55:48;6.93;;;2.78;;
23384;SDS011;11865;45.394;10.978;2022-09-09T08:58:51;10.98;;;2.80;;
23384;SDS011;11865;45.394;10.978;2022-09-09T09:07:03;10.32;;;3.33;;
23384;SDS011;11865;45.394;10.978;2022-09-09T09:12:10;10.40;;;3.35;;
23384;SDS011;11865;45.394;10.978;2022-09-09T09:14:46;27.17;;;5.95;;
23384;SDS011;11865;45.394;10.978;2022-09-09T09:17:19;14.30;;;4.03;;
23384;SDS011;11865;45.394;10.978;2022-09-09T09:19:49;10.90;;;3.17;;
23384;SDS011;11865;45.394;10.978;2022-09-09T09:22:30;12.30;;;3.08;;
23384;SDS011;11865;45.394;10.978;2022-09-09T09:30:31;11.43;;;3.13;;
23384;SDS011;11865;45.394;10.978;2022-09-09T09:33:14;7.15;;;3.88;;
23384;SDS011;11865;45.394;10.978;2022-09-09T09:36:02;8.45;;;3.17;;
23384;SDS011;11865;45.394;10.978;2022-09-09T09:38:32;10.32;;;3.08;;
23384;SDS011;11865;45.394;10.978;2022-09-09T09:41:31;11.35;;;3.13;;
23384;SDS011;11865;45.394;10.978;2022-09-09T09:46:32;9.18;;;2.60;;
23384;SDS011;11865;45.394;10.978;2022-09-09T09:49:08;10.38;;;2.70;;
23384;SDS011;11865;45.394;10.978;2022-09-09T09:51:38;8.77;;;3.08;;
23384;SDS011;11865;45.394;10.978;2022-09-09T09:57:08;6.55;;;2.55;;
23384;SDS011;11865;45.394;10.978;2022-09-09T09:59:39;7.97;;;2.50;;
23384;SDS011;11865;45.394;10.978;2022-09-09T10:02:20;10.32;;;2.10;;
23384;SDS011;11865;45.394;10.978;2022-09-09T10:07:35;10.38;;;2.90;;
23384;SDS011;11865;45.394;10.978;2022-09-09T10:10:04;8.75;;;2.75;;
23384;SDS011;11865;45.394;10.978;2022-09-09T10:12:44;9.65;;;2.58;;
23384;SDS011;11865;45.394;10.978;2022-09-09T10:35:12;13.27;;;4.90;;
23384;SDS011;11865;45.394;10.978;2022-09-09T10:51:31;7.85;;;2.85;;
23384;SDS011;11865;45.394;10.978;2022-09-09T10:56:58;8.48;;;3.45;;
23384;SDS011;11865;45.394;10.978;2022-09-09T10:59:31;6.38;;;3.22;;
23384;SDS011;11865;45.394;10.978;2022-09-09T11:02:22;6.68;;;3.42;;
23384;SDS011;11865;45.394;10.978;2022-09-09T11:08:03;7.07;;;3.33;;
23384;SDS011;11865;45.394;10.978;2022-09-09T11:18:37;6.45;;;2.40;;
23384;SDS011;11865;45.394;10.978;2022-09-09T11:21:12;3.40;;;2.25;;
23384;SDS011;11865;45.394;10.978;2022-09-09T11:23:58;3.88;;;2.20;;
23384;SDS011;11865;45.394;10.978;2022-09-09T11:26:41;7.95;;;2.40;;
23384;SDS011;11865;45.394;10.978;2022-09-09T11:40:26;6.32;;;2.80;;
23384;SDS011;11865;45.394;10.978;2022-09-09T11:43:02;5.78;;;1.83;;
23384;SDS011;11865;45.394;10.978;2022-09-09T11:45:33;4.88;;;1.80;;
23384;SDS011;11865;45.394;10.978;2022-09-09T11:48:03;4.18;;;2.20;;
23384;SDS011;11865;45.394;10.978;2022-09-09T11:50:34;2.67;;;1.45;;
23384;SDS011;11865;45.394;10.978;2022-09-09T11:53:04;3.90;;;1.88;;
23384;SDS011;11865;45.394;10.978;2022-09-09T11:55:41;3.63;;;1.70;;
23384;SDS011;11865;45.394;10.978;2022-09-09T12:00:44;2.33;;;1.27;;
23384;SDS011;11865;45.394;10.978;2022-09-09T12:06:25;4.10;;;1.25;;
23384;SDS011;11865;45.394;10.978;2022-09-09T12:09:09;6.32;;;1.50;;
23384;SDS011;11865;45.394;10.978;2022-09-09T12:11:45;2.67;;;1.10;;
23384;SDS011;11865;45.394;10.978;2022-09-09T12:14:23;3.15;;;1.27;;
23384;SDS011;11865;45.394;10.978;2022-09-09T12:19:41;4.00;;;2.00;;
23384;SDS011;11865;45.394;10.978;2022-09-09T12:22:13;3.92;;;1.40;;
23384;SDS011;11865;45.394;10.978;2022-09-09T12:27:31;2.50;;;1.55;;
23384;SDS011;11865;45.394;10.978;2022-09-09T12:30:14;3.08;;;2.00;;
23384;SDS011;11865;45.394;10.978;2022-09-09T12:32:42;3.80;;;1.30;;
23384;SDS011;11865;45.394;10.978;2022-09-09T12:35:12;4.65;;;1.40;;
23384;SDS011;11865;45.394;10.978;2022-09-09T12:37:47;1.98;;;1.23;;
23384;SDS011;11865;45.394;10.978;2022-09-09T12:40:24;2.33;;;1.10;;
23384;SDS011;11865;45.394;10.978;2022-09-09T12:42:56;2.25;;;1.27;;
23384;SDS011;11865;45.394;10.978;2022-09-09T12:45:26;2.92;;;1.40;;
23384;SDS011;11865;45.394;10.978;2022-09-09T12:48:03;3.00;;;1.50;;
23384;SDS011;11865;45.394;10.978;2022-09-09T12:50:35;2.03;;;1.30;;
23384;SDS011;11865;45.394;10.978;2022-09-09T12:53:33;2.70;;;1.30;;
23384;SDS011;11865;45.394;10.978;2022-09-09T12:56:08;2.75;;;1.55;;
23384;SDS011;11865;45.394;10.978;2022-09-09T12:58:46;1.63;;;1.33;;
23384;SDS011;11865;45.394;10.978;2022-09-09T13:03:57;3.92;;;1.00;;
23384;SDS011;11865;45.394;10.978;2022-09-09T13:06:26;1.48;;;1.10;;
23384;SDS011;11865;45.394;10.978;2022-09-09T13:08:59;1.67;;;1.08;;
23384;SDS011;11865;45.394;10.978;2022-09-09T13:14:34;2.20;;;1.40;;
23384;SDS011;11865;45.394;10.978;2022-09-09T13:17:05;2.67;;;1.70;;
23384;SDS011;11865;45.394;10.978;2022-09-09T13:19:35;4.85;;;1.20;;
23384;SDS011;11865;45.394;10.978;2022-09-09T13:22:12;2.95;;;1.77;;
23384;SDS011;11865;45.394;10.978;2022-09-09T13:25:00;3.58;;;1.73;;
23384;SDS011;11865;45.394;10.978;2022-09-09T13:27:35;6.57;;;2.03;;
23384;SDS011;11865;45.394;10.978;2022-09-09T13:30:23;4.03;;;2.08;;
23384;SDS011;11865;45.394;10.978;2022-09-09T13:33:28;7.70;;;1.90;;
23384;SDS011;11865;45.394;10.978;2022-09-09T13:35:51;4.75;;;1.50;;
23384;SDS011;11865;45.394;10.978;2022-09-09T13:38:27;2.97;;;1.63;;
23384;SDS011;11865;45.394;10.978;2022-09-09T13:41:07;5.35;;;1.75;;
23384;SDS011;11865;45.394;10.978;2022-09-09T13:43:37;3.45;;;1.40;;
23384;SDS011;11865;45.394;10.978;2022-09-09T13:51:42;5.20;;;1.58;;
23384;SDS011;11865;45.394;10.978;2022-09-09T13:54:14;6.18;;;2.78;;
23384;SDS011;11865;45.394;10.978;2022-09-09T13:56:42;6.25;;;2.30;;
23384;SDS011;11865;45.394;10.978;2022-09-09T13:59:11;4.13;;;1.98;;
23384;SDS011;11865;45.394;10.978;2022-09-09T14:01:41;4.75;;;1.83;;
23384;SDS011;11865;45.394;10.978;2022-09-09T14:04:09;3.50;;;1.88;;
23384;SDS011;11865;45.394;10.978;2022-09-09T14:06:37;3.72;;;1.90;;
23384;SDS011;11865;45.394;10.978;2022-09-09T14:09:06;4.45;;;2.00;;
23384;SDS011;11865;45.394;10.978;2022-09-09T14:22:23;11.38;;;2.17;;
23384;SDS011;11865;45.394;10.978;2022-09-09T14:24:52;8.18;;;2.22;;
23384;SDS011;11865;45.394;10.978;2022-09-09T14:27:19;3.42;;;1.80;;
23384;SDS011;11865;45.394;10.978;2022-09-09T14:29:46;4.90;;;1.88;;
23384;SDS011;11865;45.394;10.978;2022-09-09T14:32:14;4.40;;;1.52;;
23384;SDS011;11865;45.394;10.978;2022-09-09T14:34:41;5.45;;;1.73;;
23384;SDS011;11865;45.394;10.978;2022-09-09T14:37:08;5.90;;;1.45;;
23384;SDS011;11865;45.394;10.978;2022-09-09T14:39:36;2.47;;;1.65;;
23384;SDS011;11865;45.394;10.978;2022-09-09T14:42:03;3.17;;;1.95;;
23384;SDS011;11865;45.394;10.978;2022-09-09T14:44:32;3.00;;;1.60;;
23384;SDS011;11865;45.394;10.978;2022-09-09T14:47:00;25.67;;;4.57;;
23384;SDS011;11865;45.394;10.978;2022-09-09T14:49:27;13.07;;;3.28;;
23384;SDS011;11865;45.394;10.978;2022-09-09T14:51:55;5.13;;;1.80;;
23384;SDS011;11865;45.394;10.978;2022-09-09T14:54:23;10.02;;;3.17;;
23384;SDS011;11865;45.394;10.978;2022-09-09T14:56:50;16.15;;;4.57;;
23384;SDS011;11865;45.394;10.978;2022-09-09T14:59:17;6.80;;;2.20;;
23384;SDS011;11865;45.394;10.978;2022-09-09T15:01:45;9.65;;;2.50;;
23384;SDS011;11865;45.394;10.978;2022-09-09T15:04:12;9.20;;;2.08;;
23384;SDS011;11865;45.394;10.978;2022-09-09T15:06:43;7.22;;;1.60;;
23384;SDS011;11865;45.394;10.978;2022-09-09T15:09:14;8.20;;;2.80;;
23384;SDS011;11865;45.394;10.978;2022-09-09T15:11:42;8.00;;;2.03;;
23384;SDS011;11865;45.394;10.978;2022-09-09T15:14:11;2.70;;;1.58;;
23384;SDS011;11865;45.394;10.978;2022-09-09T15:16:39;5.47;;;1.88;;
23384;SDS011;11865;45.394;10.978;2022-09-09T15:19:07;2.58;;;1.60;;
23384;SDS011;11865;45.394;10.978;2022-09-09T15:21:36;4.10;;;1.40;;
23384;SDS011;11865;45.394;10.978;2022-09-09T15:24:04;5.88;;;4.15;;
23384;SDS011;11865;45.394;10.978;2022-09-09T15:26:35;4.13;;;1.60;;
23384;SDS011;11865;45.394;10.978;2022-09-09T15:29:05;3.45;;;1.27;;
23384;SDS011;11865;45.394;10.978;2022-09-09T15:31:34;6.72;;;2.80;;
23384;SDS011;11865;45.394;10.978;2022-09-09T15:34:04;13.40;;;3.33;;
23384;SDS011;11865;45.394;10.978;2022-09-09T15:36:45;4.60;;;1.50;;
23384;SDS011;11865;45.394;10.978;2022-09-09T15:39:16;4.72;;;2.40;;
23384;SDS011;11865;45.394;10.978;2022-09-09T15:41:45;6.82;;;2.08;;
23384;SDS011;11865;45.394;10.978;2022-09-09T15:44:13;6.95;;;2.60;;
23384;SDS011;11865;45.394;10.978;2022-09-09T15:46:49;3.40;;;1.90;;
23384;SDS011;11865;45.394;10.978;2022-09-09T15:49:21;5.93;;;1.80;;
23384;SDS011;11865;45.394;10.978;2022-09-09T15:51:53;3.35;;;1.95;;
23384;SDS011;11865;45.394;10.978;2022-09-09T15:54:25;3.25;;;1.52;;
23384;SDS011;11865;45.394;10.978;2022-09-09T15:56:54;5.80;;;1.85;;
23384;SDS011;11865;45.394;10.978;2022-09-09T15:59:23;5.45;;;1.80;;
23384;SDS011;11865;45.394;10.978;2022-09-09T16:01:52;4.20;;;1.52;;
23384;SDS011;11865;45.394;10.978;2022-09-09T16:04:21;5.40;;;1.90;;
23384;SDS011;11865;45.394;10.978;2022-09-09T16:06:54;3.80;;;1.73;;
23384;SDS011;11865;45.394;10.978;2022-09-09T16:09:27;3.00;;;1.70;;
23384;SDS011;11865;45.394;10.978;2022-09-09T16:11:59;2.25;;;1.50;;
23384;SDS011;11865;45.394;10.978;2022-09-09T16:14:28;3.92;;;1.85;;
23384;SDS011;11865;45.394;10.978;2022-09-09T16:16:55;3.80;;;1.70;;
23384;SDS011;11865;45.394;10.978;2022-09-09T16:19:23;5.68;;;1.90;;
23384;SDS011;11865;45.394;10.978;2022-09-09T16:21:50;5.40;;;2.28;;
23384;SDS011;11865;45.394;10.978;2022-09-09T16:24:18;6.38;;;2.40;;
23384;SDS011;11865;45.394;10.978;2022-09-09T16:26:48;6.68;;;2.00;;
23384;SDS011;11865;45.394;10.978;2022-09-09T16:29:17;5.70;;;2.05;;
23384;SDS011;11865;45.394;10.978;2022-09-09T16:31:45;4.07;;;2.10;;
23384;SDS011;11865;45.394;10.978;2022-09-09T16:34:14;4.43;;;1.90;;
23384;SDS011;11865;45.394;10.978;2022-09-09T16:36:44;3.30;;;1.80;;
23384;SDS011;11865;45.394;10.978;2022-09-09T16:39:14;5.07;;;1.67;;
23384;SDS011;11865;45.394;10.978;2022-09-09T16:41:43;4.28;;;2.22;;
23384;SDS011;11865;45.394;10.978;2022-09-09T16:44:12;7.57;;;1.95;;
23384;SDS011;11865;45.394;10.978;2022-09-09T16:46:42;5.35;;;1.80;;
23384;SDS011;11865;45.394;10.978;2022-09-09T16:49:11;3.70;;;1.80;;
23384;SDS011;11865;45.394;10.978;2022-09-09T16:51:43;6.70;;;1.80;;
23384;SDS011;11865;45.394;10.978;2022-09-09T16:54:14;3.45;;;1.45;;
23384;SDS011;11865;45.394;10.978;2022-09-09T16:56:44;3.10;;;2.00;;
23384;SDS011;11865;45.394;10.978;2022-09-09T16:59:14;9.02;;;1.70;;
23384;SDS011;11865;45.394;10.978;2022-09-09T17:01:44;4.68;;;1.30;;
23384;SDS011;11865;45.394;10.978;2022-09-09T17:04:14;4.10;;;1.73;;
23384;SDS011;11865;45.394;10.978;2022-09-09T17:06:51;4.75;;;2.05;;
23384;SDS011;11865;45.394;10.978;2022-09-09T17:09:20;4.05;;;1.40;;
23384;SDS011;11865;45.394;10.978;2022-09-09T17:11:49;4.03;;;1.80;;
23384;SDS011;11865;45.394;10.978;2022-09-09T17:14:20;3.40;;;1.85;;
23384;SDS011;11865;45.394;10.978;2022-09-09T17:16:48;2.83;;;2.00;;
23384;SDS011;11865;45.394;10.978;2022-09-09T17:19:16;5.05;;;2.22;;
23384;SDS011;11865;45.394;10.978;2022-09-09T17:21:44;4.20;;;1.60;;
23384;SDS011;11865;45.394;10.978;2022-09-09T17:24:33;11.30;;;3.10;;
23384;SDS011;11865;45.394;10.978;2022-09-09T17:27:01;9.88;;;3.83;;
23384;SDS011;11865;45.394;10.978;2022-09-09T17:29:29;7.22;;;2.55;;
23384;SDS011;11865;45.394;10.978;2022-09-09T17:31:56;6.07;;;2.42;;
23384;SDS011;11865;45.394;10.978;2022-09-09T17:34:24;3.85;;;1.80;;
23384;SDS011;11865;45.394;10.978;2022-09-09T17:36:52;5.60;;;1.90;;
23384;SDS011;11865;45.394;10.978;2022-09-09T17:39:19;3.92;;;1.98;;
23384;SDS011;11865;45.394;10.978;2022-09-09T17:41:47;3.72;;;2.08;;
23384;SDS011;11865;45.394;10.978;2022-09-09T17:44:15;4.75;;;1.90;;
23384;SDS011;11865;45.394;10.978;2022-09-09T17:46:42;6.93;;;2.47;;
23384;SDS011;11865;45.394;10.978;2022-09-09T17:49:14;5.32;;;1.88;;
23384;SDS011;11865;45.394;10.978;2022-09-09T17:51:44;14.77;;;4.45;;
23384;SDS011;11865;45.394;10.978;2022-09-09T17:54:19;3.72;;;2.10;;
23384;SDS011;11865;45.394;10.978;2022-09-09T17:56:47;4.45;;;2.00;;
23384;SDS011;11865;45.394;10.978;2022-09-09T17:59:16;3.08;;;1.90;;
23384;SDS011;11865;45.394;10.978;2022-09-09T18:01:45;4.13;;;2.10;;
23384;SDS011;11865;45.394;10.978;2022-09-09T18:04:14;4.07;;;2.20;;
23384;SDS011;11865;45.394;10.978;2022-09-09T18:06:44;3.92;;;2.55;;
23384;SDS011;11865;45.394;10.978;2022-09-09T18:09:15;7.10;;;3.00;;
23384;SDS011;11865;45.394;10.978;2022-09-09T18:11:46;7.35;;;2.33;;